createdAt,value
2022-12-23T00:01:46.408Z,-0.69
2022-12-23T00:04:13.083Z,-0.52
2022-12-23T00:06:39.599Z,-0.37
2022-12-23T00:09:06.174Z,-0.24
2022-12-23T00:11:32.665Z,-0.24
2022-12-23T00:14:21.670Z,-0.20
2022-12-23T00:16:49.331Z,-0.14
2022-12-23T00:19:15.977Z,-0.12
2022-12-23T00:21:42.492Z,-0.05
2022-12-23T00:24:09.025Z,-0.07
2022-12-23T00:26:35.543Z,-0.06
2022-12-23T00:29:02.060Z,-0.04
2022-12-23T00:31:28.683Z,-0.11
2022-12-23T00:33:55.285Z,-0.17
2022-12-23T00:36:27.593Z,-0.19
2022-12-23T00:39:13.548Z,-0.36
2022-12-23T00:41:58.465Z,-0.34
2022-12-23T00:44:24.980Z,-0.29
2022-12-23T00:46:51.762Z,-0.35
2022-12-23T00:49:37.915Z,-0.29
2022-12-23T00:52:04.992Z,-0.33
2022-12-23T00:54:32.046Z,-0.37
2022-12-23T00:56:58.911Z,-0.44
2022-12-23T00:59:25.437Z,-0.43
2022-12-23T01:02:10.533Z,-0.39
2022-12-23T01:04:55.758Z,-0.39
2022-12-23T01:07:22.529Z,-0.39
2022-12-23T01:09:49.073Z,-0.40
2022-12-23T01:12:15.868Z,-0.39
2022-12-23T01:14:42.395Z,-0.33
2022-12-23T01:17:09.137Z,-0.32
2022-12-23T01:19:36.064Z,-0.29
2022-12-23T01:22:02.610Z,-0.09
2022-12-23T01:24:29.886Z,-0.14
2022-12-23T01:26:56.711Z,-0.21
2022-12-23T01:29:23.370Z,-0.27
2022-12-23T01:31:49.969Z,-0.33
2022-12-23T01:34:16.970Z,-0.31
2022-12-23T01:36:43.695Z,-0.39
2022-12-23T01:39:10.199Z,-0.38
2022-12-23T01:41:55.203Z,-0.32
2022-12-23T01:44:40.596Z,-0.35
2022-12-23T01:47:11.447Z,-0.40
2022-12-23T01:49:37.989Z,-0.46
2022-12-23T01:52:04.537Z,-0.45
2022-12-23T01:54:31.337Z,-0.43
2022-12-23T01:56:58.355Z,-0.46
2022-12-23T01:59:43.614Z,-0.48
2022-12-23T02:02:28.625Z,-0.52
2022-12-23T02:04:55.675Z,-0.52
2022-12-23T02:07:40.579Z,-0.52
2022-12-23T02:10:07.591Z,-0.48
2022-12-23T02:12:52.645Z,-0.55
2022-12-23T02:15:50.324Z,-0.54
2022-12-23T02:18:22.821Z,-0.43
2022-12-23T02:20:55.260Z,-0.39
2022-12-23T02:23:40.287Z,-0.40
2022-12-23T02:26:25.303Z,-0.39
2022-12-23T02:29:12.033Z,-0.40
2022-12-23T02:31:38.550Z,-0.41
2022-12-23T02:34:06.910Z,-0.40
2022-12-23T02:36:51.028Z,-0.37
2022-12-23T02:39:29.747Z,-0.39
2022-12-23T02:41:56.323Z,-0.40
2022-12-23T02:44:22.853Z,-0.42
2022-12-23T02:46:56.920Z,-0.40
2022-12-23T02:49:25.589Z,-0.41
2022-12-23T02:51:54.633Z,-0.47
2022-12-23T02:54:25.064Z,-0.49
2022-12-23T02:56:52.678Z,-0.47
2022-12-23T02:59:22.464Z,-0.36
2022-12-23T03:01:49.764Z,-0.32
2022-12-23T03:04:16.370Z,-0.45
2022-12-23T03:06:51.462Z,-0.43
2022-12-23T03:09:24.801Z,-0.52
2022-12-23T03:11:57.717Z,-0.57
2022-12-23T03:14:36.716Z,-0.52
2022-12-23T03:17:03.158Z,-0.49
2022-12-23T03:19:29.671Z,-0.51
2022-12-23T03:22:14.080Z,-0.45
2022-12-23T03:24:45.039Z,-0.33
2022-12-23T03:27:50.194Z,-0.26
2022-12-23T03:30:20.897Z,-0.23
2022-12-23T03:32:51.673Z,-0.33
2022-12-23T03:35:20.547Z,-0.32
2022-12-23T03:37:49.517Z,-0.23
2022-12-23T03:40:19.410Z,-0.10
2022-12-23T03:42:50.313Z,-0.01
2022-12-23T03:45:37.950Z,-0.15
2022-12-23T03:48:09.431Z,-0.19
2022-12-23T03:50:36.621Z,-0.13
2022-12-23T03:53:03.172Z,-0.11
2022-12-23T03:55:35.885Z,-0.17
2022-12-23T03:58:08.516Z,-0.23
2022-12-23T04:00:36.396Z,-0.24
2022-12-23T04:03:23.343Z,-0.18
2022-12-23T04:05:52.603Z,-0.11
2022-12-23T04:08:19.066Z,-0.24
2022-12-23T04:10:45.973Z,-0.26
2022-12-23T04:13:12.737Z,-0.26
2022-12-23T04:15:41.466Z,-0.20
2022-12-23T04:18:09.650Z,-0.23
2022-12-23T04:20:36.638Z,-0.18
2022-12-23T04:23:03.254Z,-0.11
2022-12-23T04:25:29.757Z,-0.02
2022-12-23T04:27:56.291Z,-0.01
2022-12-23T04:30:26.611Z,0.12
2022-12-23T04:32:56.117Z,0.22
2022-12-23T04:35:22.757Z,0.15
2022-12-23T04:37:49.257Z,0.05
2022-12-23T04:40:15.782Z,0.01
2022-12-23T04:42:42.264Z,0.03
2022-12-23T04:45:09.078Z,-0.03
2022-12-23T04:47:35.650Z,0.17
2022-12-23T04:50:02.196Z,0.12
2022-12-23T04:52:28.680Z,0.07
2022-12-23T04:54:55.233Z,0.04
2022-12-23T04:57:21.906Z,0.08
2022-12-23T04:59:48.408Z,0.05
2022-12-23T05:02:15.135Z,0.11
2022-12-23T05:04:42.009Z,0.14
2022-12-23T05:07:08.529Z,0.14
2022-12-23T05:09:35.067Z,0.16
2022-12-23T05:12:01.714Z,0.17
2022-12-23T05:14:28.302Z,0.11
2022-12-23T05:16:54.942Z,0.11
2022-12-23T05:19:21.564Z,0.07
2022-12-23T05:21:48.112Z,0.18
2022-12-23T05:24:14.877Z,0.21
2022-12-23T05:26:44.886Z,0.11
2022-12-23T05:29:14.546Z,0.09
2022-12-23T05:31:41.175Z,0.12
2022-12-23T05:34:07.781Z,0.19
2022-12-23T05:36:34.480Z,0.21
2022-12-23T05:39:00.980Z,0.16
2022-12-23T05:41:27.559Z,0.10
2022-12-23T05:43:54.188Z,0.06
2022-12-23T05:46:26.145Z,0.07
2022-12-23T05:48:53.326Z,0.08
2022-12-23T05:51:19.873Z,0.06
2022-12-23T05:53:46.373Z,0.05
2022-12-23T05:56:12.969Z,0.02
2022-12-23T05:58:39.461Z,0.00
2022-12-23T06:01:05.936Z,0.02
2022-12-23T06:03:32.740Z,0.09
2022-12-23T06:05:59.371Z,0.08
2022-12-23T06:08:25.933Z,0.01
2022-12-23T06:10:52.466Z,0.02
2022-12-23T06:13:18.998Z,-0.04
2022-12-23T06:15:45.516Z,-0.12
2022-12-23T06:18:12.074Z,-0.12
2022-12-23T06:20:38.615Z,-0.12
2022-12-23T06:23:05.167Z,-0.15
2022-12-23T06:25:31.753Z,-0.12
2022-12-23T06:27:58.327Z,-0.20
2022-12-23T06:30:24.897Z,-0.21
2022-12-23T06:32:51.413Z,-0.13
2022-12-23T06:35:17.972Z,-0.10
2022-12-23T06:37:44.805Z,-0.10
2022-12-23T06:40:11.608Z,-0.09
2022-12-23T06:42:38.164Z,-0.13
2022-12-23T06:45:04.959Z,-0.25
2022-12-23T06:47:31.510Z,-0.28
2022-12-23T06:49:58.057Z,-0.32
2022-12-23T06:52:24.607Z,-0.31
2022-12-23T06:54:51.208Z,-0.32
2022-12-23T06:57:17.698Z,-0.36
2022-12-23T06:59:44.238Z,-0.34
2022-12-23T07:02:11.821Z,-0.32
2022-12-23T07:04:38.581Z,-0.38
2022-12-23T07:07:05.136Z,-0.39
2022-12-23T07:09:31.714Z,-0.46
2022-12-23T07:11:58.255Z,-0.48
2022-12-23T07:14:24.776Z,-0.51
2022-12-23T07:16:51.371Z,-0.41
2022-12-23T07:19:17.921Z,-0.38
2022-12-23T07:21:44.556Z,-0.40
2022-12-23T07:24:11.078Z,-0.43
2022-12-23T07:26:37.735Z,-0.38
2022-12-23T07:29:04.726Z,-0.41
2022-12-23T07:31:31.303Z,-0.35
2022-12-23T07:33:57.910Z,-0.38
2022-12-23T07:36:24.428Z,-0.42
2022-12-23T07:38:51.612Z,-0.18
2022-12-23T07:41:18.564Z,-0.15
2022-12-23T07:43:45.181Z,-0.20
2022-12-23T07:46:11.759Z,-0.13
2022-12-23T07:48:39.827Z,-0.09
2022-12-23T07:51:06.587Z,-0.04
2022-12-23T07:53:33.335Z,-0.03
2022-12-23T07:55:59.874Z,0.01
2022-12-23T07:58:26.400Z,0.07
2022-12-23T08:00:59.249Z,0.15
2022-12-23T08:03:25.897Z,0.26
2022-12-23T08:06:01.635Z,0.44
2022-12-23T08:08:28.322Z,0.40
2022-12-23T08:10:59.500Z,0.43
2022-12-23T08:13:26.411Z,0.52
2022-12-23T08:15:56.503Z,0.52
2022-12-23T08:18:23.068Z,0.63
2022-12-23T08:20:56.812Z,0.67
2022-12-23T08:23:25.012Z,0.71
2022-12-23T08:26:01.054Z,0.74
2022-12-23T08:28:27.921Z,0.68
2022-12-23T08:30:54.419Z,0.90
2022-12-23T08:33:21.066Z,0.82
2022-12-23T08:35:47.609Z,0.74
2022-12-23T08:38:14.127Z,0.81
2022-12-23T08:40:40.784Z,0.93
2022-12-23T08:43:07.977Z,0.98
2022-12-23T08:45:38.649Z,1.06
2022-12-23T08:48:05.996Z,1.05
2022-12-23T08:50:37.974Z,1.11
2022-12-23T08:53:04.721Z,1.13
2022-12-23T08:55:31.374Z,1.22
2022-12-23T08:57:57.839Z,1.22
2022-12-23T09:00:24.416Z,1.29
2022-12-23T09:02:51.075Z,1.24
2022-12-23T09:05:17.701Z,1.27
2022-12-23T09:07:44.333Z,1.43
2022-12-23T09:10:10.907Z,1.81
2022-12-23T09:12:37.434Z,1.64
2022-12-23T09:15:04.100Z,1.58
2022-12-23T09:17:30.604Z,1.58
2022-12-23T09:19:57.108Z,1.55
2022-12-23T09:22:23.633Z,1.50
2022-12-23T09:24:50.172Z,1.67
2022-12-23T09:27:16.679Z,1.78
2022-12-23T09:29:43.623Z,1.70
2022-12-23T09:32:10.161Z,1.65
2022-12-23T09:34:36.684Z,1.72
2022-12-23T09:37:03.548Z,1.73
2022-12-23T09:39:30.008Z,1.74
2022-12-23T09:42:08.079Z,1.71
2022-12-23T09:44:34.575Z,1.70
2022-12-23T09:47:03.244Z,1.80
2022-12-23T09:49:30.174Z,1.75
2022-12-23T09:52:04.072Z,1.85
2022-12-23T09:54:37.757Z,1.87
2022-12-23T09:57:16.401Z,1.94
2022-12-23T10:00:01.232Z,2.11
2022-12-23T10:02:27.872Z,2.18
2022-12-23T10:05:13.223Z,2.30
2022-12-23T10:07:45.963Z,2.18
2022-12-23T10:10:18.206Z,2.25
2022-12-23T10:12:47.321Z,2.48
2022-12-23T10:15:37.442Z,2.40
2022-12-23T10:18:06.825Z,2.44
2022-12-23T10:20:39.516Z,2.82
2022-12-23T10:23:10.781Z,2.64
2022-12-23T10:25:39.334Z,2.61
2022-12-23T10:28:05.861Z,2.73
2022-12-23T10:30:57.430Z,2.89
2022-12-23T10:33:30.638Z,2.94
2022-12-23T10:36:03.321Z,3.07
2022-12-23T10:38:32.955Z,3.05
2022-12-23T10:41:11.149Z,3.03
2022-12-23T10:43:50.010Z,3.32
2022-12-23T10:46:35.062Z,3.39
2022-12-23T10:49:13.973Z,3.48
2022-12-23T10:51:49.874Z,3.45
2022-12-23T10:54:48.768Z,3.48
2022-12-23T10:57:16.421Z,3.54
2022-12-23T10:59:42.977Z,3.54
2022-12-23T11:02:24.504Z,3.54
2022-12-23T11:04:51.235Z,3.67
2022-12-23T11:10:13.762Z,3.64
2022-12-23T11:12:42.666Z,3.76
2022-12-23T11:15:24.994Z,4.12
2022-12-23T11:17:59.006Z,3.99
2022-12-23T11:20:25.634Z,3.95
2022-12-23T11:22:53.239Z,3.85
2022-12-23T11:25:19.998Z,3.79
2022-12-23T11:27:46.826Z,3.97
2022-12-23T11:30:19.797Z,4.03
2022-12-23T11:32:46.359Z,3.98
2022-12-23T11:35:32.879Z,3.99
2022-12-23T11:38:00.706Z,3.97
2022-12-23T11:40:27.208Z,4.00
2022-12-23T11:43:02.019Z,4.11
2022-12-23T11:45:29.835Z,4.06
2022-12-23T11:47:56.473Z,4.11
2022-12-23T11:50:22.941Z,4.18
2022-12-23T11:52:51.016Z,4.24
2022-12-23T11:55:25.343Z,4.28
2022-12-23T11:57:52.462Z,4.31
2022-12-23T12:00:25.174Z,4.57
2022-12-23T12:02:53.058Z,4.53
2022-12-23T12:05:22.689Z,4.50
2022-12-23T12:07:50.480Z,4.48
2022-12-23T12:10:28.175Z,4.50
2022-12-23T12:13:01.030Z,4.57
2022-12-23T12:15:38.494Z,4.52
2022-12-23T12:18:07.084Z,4.73
2022-12-23T12:20:39.316Z,4.67
2022-12-23T12:23:18.632Z,4.60
2022-12-23T12:25:49.009Z,4.61
2022-12-23T12:28:24.109Z,4.58
2022-12-23T12:30:54.035Z,4.54
2022-12-23T12:33:27.223Z,4.54
2022-12-23T12:36:03.342Z,4.59
2022-12-23T12:38:34.618Z,4.63
2022-12-23T12:41:08.738Z,4.58
2022-12-23T12:43:37.964Z,4.51
2022-12-23T12:46:19.546Z,4.41
2022-12-23T12:48:55.966Z,4.38
2022-12-23T12:51:44.255Z,4.38
2022-12-23T12:54:23.013Z,4.34
2022-12-23T12:56:51.459Z,4.27
2022-12-23T12:59:20.552Z,4.21
2022-12-23T13:02:00.873Z,4.21
2022-12-23T13:04:27.411Z,4.39
2022-12-23T13:07:08.524Z,4.34
2022-12-23T13:09:41.021Z,4.30
2022-12-23T13:12:15.060Z,4.29
2022-12-23T13:14:50.170Z,4.24
2022-12-23T13:17:32.463Z,4.24
2022-12-23T13:20:17.694Z,4.21
2022-12-23T13:22:45.968Z,4.20
2022-12-23T13:25:21.842Z,4.14
2022-12-23T13:27:58.513Z,4.13
2022-12-23T13:30:28.397Z,4.20
2022-12-23T13:33:05.397Z,4.17
2022-12-23T13:35:33.623Z,4.19
2022-12-23T13:38:18.635Z,4.19
2022-12-23T13:41:04.234Z,4.25
2022-12-23T13:43:39.530Z,4.19
2022-12-23T13:46:09.412Z,4.19
2022-12-23T13:48:43.875Z,4.22
2022-12-23T13:51:15.410Z,4.43
2022-12-23T13:53:48.056Z,4.51
2022-12-23T13:56:30.085Z,4.48
2022-12-23T13:58:57.396Z,4.47
2022-12-23T14:01:35.906Z,4.42
2022-12-23T14:04:22.685Z,4.39
2022-12-23T14:06:49.244Z,4.42
2022-12-23T14:09:16.823Z,4.46
2022-12-23T14:11:45.114Z,4.57
2022-12-23T14:14:18.688Z,4.53
2022-12-23T14:17:02.445Z,4.55
2022-12-23T14:19:44.017Z,4.61
2022-12-23T14:22:36.968Z,4.55
2022-12-23T14:25:21.788Z,4.53
2022-12-23T14:27:56.401Z,4.61
2022-12-23T14:30:22.987Z,4.61
2022-12-23T14:32:52.180Z,4.55
2022-12-23T14:35:18.732Z,4.54
2022-12-23T14:38:17.463Z,4.60
2022-12-23T14:40:44.121Z,4.62
2022-12-23T14:43:23.067Z,4.68
2022-12-23T14:45:51.308Z,4.67
2022-12-23T14:48:36.125Z,4.70
2022-12-23T14:51:21.948Z,4.74
2022-12-23T14:53:51.183Z,4.68
2022-12-23T14:56:23.470Z,4.61
2022-12-23T14:58:53.108Z,4.57
2022-12-23T15:01:26.308Z,4.52
2022-12-23T15:04:00.771Z,4.49
2022-12-23T15:06:28.588Z,4.46
2022-12-23T15:08:56.295Z,4.46
2022-12-23T15:11:25.894Z,4.50
2022-12-23T15:13:54.119Z,4.53
2022-12-23T15:16:26.659Z,4.51
2022-12-23T15:18:54.085Z,4.46
2022-12-23T15:21:20.627Z,4.46
2022-12-23T15:23:50.789Z,4.42
2022-12-23T15:26:17.887Z,4.34
2022-12-23T15:28:44.571Z,4.32
2022-12-23T15:31:23.668Z,4.31
2022-12-23T15:34:08.879Z,4.18
2022-12-23T15:36:37.016Z,4.14
2022-12-23T15:39:08.420Z,4.15
2022-12-23T15:41:41.703Z,4.08
2022-12-23T15:44:11.319Z,4.05
2022-12-23T15:46:39.705Z,4.03
2022-12-23T15:49:06.859Z,4.08
2022-12-23T15:52:05.632Z,4.03
2022-12-23T15:54:24.009Z,3.93
2022-12-23T15:56:52.347Z,3.88
2022-12-23T15:59:27.259Z,3.87
2022-12-23T16:01:54.825Z,3.86
2022-12-23T16:04:24.997Z,3.77
2022-12-23T16:06:51.683Z,3.73
2022-12-23T16:09:18.177Z,3.71
2022-12-23T16:12:01.897Z,3.63
2022-12-23T16:14:33.541Z,3.60
2022-12-23T16:17:01.769Z,3.58
2022-12-23T16:19:37.264Z,3.58
2022-12-23T16:22:22.414Z,3.47
2022-12-23T16:25:00.859Z,3.43
2022-12-23T16:27:37.629Z,3.47
2022-12-23T16:30:24.669Z,3.50
2022-12-23T16:32:55.666Z,3.47
2022-12-23T16:35:28.395Z,3.41
2022-12-23T16:37:59.836Z,3.43
2022-12-23T16:40:26.597Z,3.40
2022-12-23T16:42:53.182Z,3.35
2022-12-23T16:45:19.725Z,3.32
2022-12-23T16:47:46.304Z,3.29
2022-12-23T16:50:14.722Z,3.27
2022-12-23T16:52:41.282Z,3.17
2022-12-23T16:55:15.637Z,3.20
2022-12-23T16:57:42.432Z,3.18
2022-12-23T17:00:10.526Z,3.16
2022-12-23T17:02:37.183Z,3.24
2022-12-23T17:05:03.805Z,3.43
2022-12-23T17:07:30.382Z,3.50
2022-12-23T17:09:56.940Z,3.36
2022-12-23T17:12:23.481Z,3.27
2022-12-23T17:14:50.057Z,3.23
2022-12-23T17:17:16.572Z,3.21
2022-12-23T17:19:43.198Z,3.22
2022-12-23T17:22:12.203Z,3.22
2022-12-23T17:24:38.767Z,3.14
2022-12-23T17:27:11.878Z,3.12
2022-12-23T17:29:38.579Z,3.13
2022-12-23T17:32:05.424Z,3.17
2022-12-23T17:34:32.002Z,3.20
2022-12-23T17:37:00.859Z,3.23
2022-12-23T17:39:27.464Z,3.18
2022-12-23T17:41:54.017Z,3.20
2022-12-23T17:44:20.590Z,3.14
2022-12-23T17:46:47.465Z,3.13
2022-12-23T17:49:14.118Z,3.15
2022-12-23T17:51:41.400Z,3.15
2022-12-23T17:54:16.675Z,3.13
2022-12-23T17:56:43.216Z,3.10
2022-12-23T17:59:09.688Z,3.09
2022-12-23T18:01:36.704Z,3.10
2022-12-23T18:04:03.268Z,3.06
2022-12-23T18:06:29.801Z,3.16
2022-12-23T18:08:59.329Z,3.33
2022-12-23T18:11:25.832Z,3.31
2022-12-23T18:13:52.896Z,3.18
2022-12-23T18:16:19.844Z,3.15
2022-12-23T18:18:47.154Z,3.14
2022-12-23T18:21:24.707Z,3.17
2022-12-23T18:23:51.979Z,3.13
2022-12-23T18:26:18.512Z,3.07
2022-12-23T18:28:45.132Z,3.07
2022-12-23T18:31:19.742Z,3.13
2022-12-23T18:33:46.555Z,3.17
2022-12-23T18:36:20.562Z,3.11
2022-12-23T18:38:47.172Z,3.16
2022-12-23T18:41:14.044Z,3.19
2022-12-23T18:43:40.734Z,3.15
2022-12-23T18:46:07.472Z,3.18
2022-12-23T18:48:34.001Z,3.24
2022-12-23T18:51:00.504Z,3.17
2022-12-23T18:53:27.087Z,3.10
2022-12-23T18:55:54.093Z,3.08
2022-12-23T18:58:21.345Z,3.12
2022-12-23T19:00:48.586Z,3.16
2022-12-23T19:03:21.505Z,3.13
2022-12-23T19:05:48.908Z,3.09
2022-12-23T19:08:20.335Z,3.10
2022-12-23T19:10:51.044Z,3.09
2022-12-23T19:13:18.318Z,3.10
2022-12-23T19:15:45.246Z,3.11
2022-12-23T19:18:19.304Z,3.12
2022-12-23T19:20:46.224Z,3.13
2022-12-23T19:23:12.928Z,3.12
2022-12-23T19:25:50.763Z,3.14
2022-12-23T19:28:20.946Z,3.09
2022-12-23T19:30:47.553Z,3.09
2022-12-23T19:33:14.135Z,3.13
2022-12-23T19:35:41.399Z,3.13
2022-12-23T19:38:08.372Z,3.24
2022-12-23T19:40:34.955Z,3.31
2022-12-23T19:43:01.517Z,3.31
2022-12-23T19:45:28.125Z,3.38
2022-12-23T19:47:54.662Z,3.31
2022-12-23T19:50:22.336Z,3.35
2022-12-23T19:52:50.194Z,3.35
2022-12-23T19:55:16.710Z,3.36
2022-12-23T19:57:43.487Z,3.36
2022-12-23T20:00:10.249Z,3.35
2022-12-23T20:02:36.836Z,3.29
2022-12-23T20:05:03.931Z,3.20
2022-12-23T20:07:30.532Z,3.11
2022-12-23T20:09:57.035Z,3.02
2022-12-23T20:12:25.430Z,3.02
2022-12-23T20:14:51.956Z,3.01
2022-12-23T20:17:18.458Z,3.00
2022-12-23T20:19:46.401Z,3.04
2022-12-23T20:22:13.154Z,3.25
2022-12-23T20:24:39.667Z,3.26
2022-12-23T20:27:10.967Z,3.33
2022-12-23T20:29:38.531Z,3.40
2022-12-23T20:32:05.202Z,3.33
2022-12-23T20:34:38.398Z,3.31
2022-12-23T20:37:05.976Z,3.37
2022-12-23T20:39:32.532Z,3.45
2022-12-23T20:41:59.052Z,3.55
2022-12-23T20:44:34.940Z,3.49
2022-12-23T20:47:02.605Z,3.44
2022-12-23T20:49:29.374Z,3.46
2022-12-23T20:51:56.042Z,3.37
2022-12-23T20:54:27.868Z,3.38
2022-12-23T20:56:56.677Z,3.32
2022-12-23T20:59:23.202Z,3.28
2022-12-23T21:01:49.713Z,3.25
2022-12-23T21:04:16.895Z,3.23
2022-12-23T21:06:43.677Z,3.18
2022-12-23T21:09:11.754Z,3.17
2022-12-23T21:11:39.773Z,3.21
2022-12-23T21:14:07.720Z,3.32
2022-12-23T21:16:35.538Z,3.30
2022-12-23T21:19:02.286Z,3.33
2022-12-23T21:21:28.973Z,3.37
2022-12-23T21:23:56.970Z,3.37
2022-12-23T21:26:25.231Z,3.40
2022-12-23T21:28:53.106Z,3.63
2022-12-23T21:31:21.241Z,3.55
2022-12-23T21:33:49.097Z,3.46
2022-12-23T21:36:20.307Z,3.43
2022-12-23T21:38:47.488Z,3.39
2022-12-23T21:41:15.794Z,3.26
2022-12-23T21:43:42.396Z,3.18
2022-12-23T21:46:11.468Z,3.11
2022-12-23T21:48:38.489Z,3.08
2022-12-23T21:51:15.498Z,3.07
2022-12-23T21:53:43.135Z,3.06
2022-12-23T21:56:10.945Z,3.06
2022-12-23T21:58:37.573Z,3.02
2022-12-23T22:01:08.411Z,3.03
2022-12-23T22:03:35.120Z,3.06
2022-12-23T22:06:10.219Z,3.09
2022-12-23T22:08:37.753Z,3.15
2022-12-23T22:11:08.496Z,3.20
2022-12-23T22:13:35.120Z,3.19
2022-12-23T22:16:01.964Z,3.27
2022-12-23T22:18:28.508Z,3.27
2022-12-23T22:20:55.046Z,3.20
2022-12-23T22:23:21.564Z,3.28
2022-12-23T22:25:54.611Z,3.35
2022-12-23T22:28:21.538Z,3.31
2022-12-23T22:30:48.092Z,3.36
2022-12-23T22:33:14.957Z,3.37
2022-12-23T22:35:41.470Z,3.46
2022-12-23T22:38:09.030Z,3.44
2022-12-23T22:40:35.604Z,3.48
2022-12-23T22:43:02.102Z,3.49
2022-12-23T22:45:28.651Z,3.44
2022-12-23T22:47:55.493Z,3.44
2022-12-23T22:50:22.206Z,3.48
2022-12-23T22:52:48.731Z,3.52
2022-12-23T22:55:15.299Z,3.41
2022-12-23T22:57:41.807Z,3.35
2022-12-23T23:00:12.506Z,3.29
2022-12-23T23:02:39.399Z,3.26
2022-12-23T23:05:12.340Z,3.22
2022-12-23T23:07:39.549Z,3.17
2022-12-23T23:10:06.371Z,3.13
2022-12-23T23:12:32.916Z,2.79
2022-12-23T23:14:59.424Z,2.72
2022-12-23T23:17:26.880Z,2.80
2022-12-23T23:19:53.826Z,2.81
2022-12-23T23:22:21.586Z,2.81
2022-12-23T23:24:48.161Z,2.77
2022-12-23T23:27:14.677Z,2.75
2022-12-23T23:29:41.653Z,2.74
2022-12-23T23:32:08.630Z,2.78
2022-12-23T23:34:35.210Z,2.73
2022-12-23T23:37:01.800Z,2.73
2022-12-23T23:39:28.316Z,2.67
2022-12-23T23:41:54.828Z,2.68
2022-12-23T23:44:21.486Z,2.69
2022-12-23T23:46:48.152Z,2.49
2022-12-23T23:49:14.732Z,2.50
2022-12-23T23:51:42.090Z,2.65
2022-12-23T23:54:09.002Z,2.63
2022-12-23T23:56:38.654Z,2.39
2022-12-23T23:59:06.213Z,2.32
